Tabiona
, Tabiona
Last Weather Update:11/25/2011 8:00:00 AM
Date
ETo
ETc
Rain
Irrigation
Req
Temp
Max
Temp
Min
Temp
Avg
Avg RH
Avg Wind
Avg Solar
inches
inches
incehs
inches
F
F
F
%
%
watts/m2
10/1/2011 0.29" 0.17" 0.00" 0.17" 77.8° 43.6° 59.6° 44.9% 7.0 MPH 412.4w/m2
10/2/2011 0.21" 0.12" 0.00" 0.12" 74.2° 43.7° 55.5° 56.1% 6.2 MPH 325.8w/m2
10/3/2011 0.19" 0.10" 0.00" 0.10" 70.1° 42.4° 53.8° 63.3% 6.3 MPH 315.4w/m2
10/4/2011 0.14" 0.07" 1.08" -0.79" 67.0° 45.5° 51.6° 79.3% 4.4 MPH 269.2w/m2
10/5/2011 0.03" 0.01" 1.00" -0.79" 47.9° 40.6° 44.8° 90.9% 3.8 MPH 64.4w/m2
10/6/2011 0.06" 0.03" 0.31" -0.22" 41.3° 27.5° 35.6° 78.4% 7.4 MPH 156.0w/m2
10/7/2011 0.06" 0.03" 0.00" 0.03" 43.7° 27.5° 34.8° 69.8% 6.0 MPH 123.6w/m2
10/8/2011 0.12" 0.05" 0.02" 0.04" 51.1° 32.3° 40.1° 71.6% 6.0 MPH 259.8w/m2
10/9/2011 0.12" 0.05" 0.00" 0.05" 53.6° 31.1° 40.2° 73.7% 2.3 MPH 269.2w/m2
10/10/2011 0.13" 0.05" 0.00" 0.05" 59.4° 29.0° 42.3° 68.5% 4.7 MPH 266.1w/m2
10/11/2011 0.12" 0.05" 0.00" 0.05" 56.9° 35.3° 46.2° 70.2% 6.1 MPH 248.6w/m2
10/12/2011 0.26" 0.10" 0.00" 0.10" 63.7° 37.8° 49.3° 39.4% 7.1 MPH 414.4w/m2
10/13/2011 0.29" 0.10" 0.00" 0.10" 68.7° 34.0° 48.6° 47.2% 6.7 MPH 457.7w/m2
10/14/2011 0.29" 0.09" 0.00" 0.09" 69.8° 36.5° 50.8° 50.7% 6.9 MPH 462.9w/m2
10/15/2011 0.30" 0.09" 0.00" 0.09" 76.9° 37.9° 54.1° 45.0% 7.2 MPH 443.6w/m2
10/16/2011 0.23" 0.07" 0.00" 0.07" 72.3° 41.1° 53.1° 45.8% 7.5 MPH 338.1w/m2
10/17/2011 0.20" 0.05" 0.10" -0.03" 57.2° 39.4° 47.0° 51.2% 13.3 MPH 360.2w/m2
10/18/2011 0.20" 0.05" 0.00" 0.05" 60.4° 26.2° 42.5° 49.3% 5.5 MPH 369.1w/m2
10/19/2011 0.22" 0.05" 0.00" 0.05" 62.9° 29.1° 44.7° 50.4% 6.7 MPH 379.5w/m2
10/20/2011 0.23" 0.05" 0.00" 0.05" 65.1° 33.7° 48.2° 48.0% 6.4 MPH 382.0w/m2
10/21/2011 0.25" 0.05" 0.00" 0.05" 68.0° 35.3° 48.0° 46.8% 6.8 MPH 401.7w/m2
10/22/2011 0.22" 0.04" 0.00" 0.04" 63.3° 29.8° 47.4° 46.6% 7.3 MPH 351.1w/m2
10/23/2011 0.24" 0.04" 0.00" 0.04" 69.3° 33.0° 49.3° 44.3% 5.8 MPH 395.2w/m2
10/24/2011 0.23" 0.03" 0.00" 0.03" 67.6° 33.4° 48.5° 40.3% 7.0 MPH 355.3w/m2
10/25/2011 0.10" 0.01" 0.00" 0.01" 57.5° 30.0° 43.5° 54.6% 7.9 MPH 163.0w/m2
10/26/2011 0.08" 0.01" 0.00" 0.01" 42.4° 24.0° 33.7° 71.8% 4.5 MPH 213.0w/m2
10/27/2011 0.11" 0.01" 0.00" 0.01" 46.8° 16.0° 29.3° 59.9% 5.4 MPH 278.0w/m2
10/28/2011 0.13" 0.01" 0.00" 0.01" 49.4° 13.0° 31.8° 46.0% 5.2 MPH 269.4w/m2
10/29/2011 0.13" 0.01" 0.00" 0.01" 55.3° 18.6° 39.3° 37.6% 9.5 MPH 206.1w/m2
10/30/2011 0.18" 0.00" 0.00" 0.00" 59.3° 30.1° 44.1° 49.3% 7.3 MPH 314.4w/m2
10/31/2011 0.16" 0.00" 0.00" 0.00" 64.3° 28.3° 43.6° 49.7% 6.3 MPH 268.6w/m2
Totals: 5.53" 1.60" 2.51" -0.41" 77.8° 13.0° 45.2° 56.1% 6.5 MPH 307.6w/m2